Aviation Digital Data Service (ADDS)

Output produced by METARs form (2031 UTC 27 April 2017)
found at http://aviationweather.gov/adds/metars/
 
KLBE 271728Z 2718/2818 22012G18KT P6SM BKN200 
     FM272200 18009G18KT P6SM -SHRA VCTS BKN050CB 
     FM280300 21008KT P6SM BKN050 
     FM280700 26004KT P6SM BKN020 
     FM281300 20004KT P6SM SCT025